Antelope, Montana
Current Conditions -  °F | °C
As of 4:52 AM on Saturday 01 Nov 2014 (Local Time) from KISN Reporting Station
Clear Clear  
Wind Chill: 32°   Ceiling: Unl
Heat Index: 32°   Visibility: 10mi
Dew Point: 20°   Wind: 3mph
Humidity: 61%   Direction: 190°S
Pressure: 29.8"   Gusts: NA
Location:  48.69°N, 104.46°W
Report Text: KISN 011052Z AUTO 19003KT 10SM CLR 00/M07 A2980 RMK AO2 SLP108 T00001067
Loading
Personal Weather Stations






























Interactive Weather Map
Tropical Storm Tracking
New forecast layout! Learn more

10-Day Weather Forecast

Advertisements
Track Severe Weather on mobile